Chaval, Brazil
Current Conditions -  °F | °C
As of 3:00 PM on Thursday 23 Oct 2014 (Local Time) from SBPB Reporting Station
Clear Clear  
Wind Chill: 90°   Ceiling: Unl
Heat Index: 100°   Visibility: 6mi
Dew Point: 75°   Wind: 21mph
Humidity: 62%   Direction: 60°ENE
Pressure: 29.8"   Gusts: NA
Location:  3.08°S, 41.45°W
Report Text: SBPB 231800Z 06018KT CAVOK 32/24 Q1009
Loading
Personal Weather Stations






























Interactive Weather Map
Tropical Storm Tracking
New forecast layout! Learn more

10-Day Weather Forecast

Advertisements
Track Severe Weather on mobile